createdAt,value
2018-05-03T00:02:12.100Z,100540.22
2018-05-03T00:04:38.009Z,100539.10
2018-05-03T00:07:04.861Z,100542.91
2018-05-03T00:09:30.656Z,100539.41
2018-05-03T00:11:56.507Z,100542.33
2018-05-03T00:14:22.369Z,100539.13
2018-05-03T00:16:49.076Z,100545.87
2018-05-03T00:19:15.105Z,100537.23
2018-05-03T00:21:40.941Z,100537.04
2018-05-03T00:24:06.756Z,100519.13
2018-05-03T00:26:33.484Z,100502.77
2018-05-03T00:28:59.316Z,100502.80
2018-05-03T00:31:25.998Z,100517.42
2018-05-03T00:33:52.704Z,100539.64
2018-05-03T00:36:18.499Z,100531.87
2018-05-03T00:38:44.296Z,100512.84
2018-05-03T00:41:10.183Z,100512.78
2018-05-03T00:43:37.005Z,100519.79
2018-05-03T00:46:02.840Z,100518.05
2018-05-03T00:48:29.513Z,100533.62
2018-05-03T00:50:56.304Z,100549.91
2018-05-03T00:53:22.106Z,100555.39
2018-05-03T00:55:48.788Z,100558.63
2018-05-03T00:58:15.540Z,100568.53
2018-05-03T01:00:44.371Z,100575.55
2018-05-03T01:03:10.232Z,100583.05
2018-05-03T01:05:36.064Z,100589.33
2018-05-03T01:08:02.672Z,100582.71
2018-05-03T01:10:29.554Z,100580.98
2018-05-03T01:12:55.356Z,100582.73
2018-05-03T01:15:21.168Z,100589.02
2018-05-03T01:17:47.985Z,100587.05
2018-05-03T01:20:13.803Z,100590.67
2018-05-03T01:22:40.536Z,100597.81
2018-05-03T01:25:06.366Z,100589.44
2018-05-03T01:27:32.168Z,100579.99
2018-05-03T01:29:57.996Z,100578.99
2018-05-03T01:32:23.857Z,100580.90
2018-05-03T01:34:55.745Z,100579.37
2018-05-03T01:37:21.640Z,100563.36
2018-05-03T01:39:47.499Z,100568.52
2018-05-03T01:42:13.325Z,100581.04
2018-05-03T01:44:40.067Z,100589.83
2018-05-03T01:47:07.002Z,100597.25
2018-05-03T01:49:32.912Z,100598.05
2018-05-03T01:51:58.804Z,100594.84
2018-05-03T01:54:24.769Z,100593.62
2018-05-03T01:56:50.683Z,100603.72
2018-05-03T01:59:16.532Z,100596.89
2018-05-03T02:01:42.501Z,100601.98
2018-05-03T02:04:08.323Z,100601.75
2018-05-03T02:06:35.172Z,100601.86
2018-05-03T02:09:01.018Z,100614.39
2018-05-03T02:11:26.860Z,100597.63
2018-05-03T02:13:52.745Z,100598.99
2018-05-03T02:16:18.541Z,100598.18
2018-05-03T02:18:44.427Z,100594.86
2018-05-03T02:21:10.237Z,100576.11
2018-05-03T02:23:36.096Z,100570.76
2018-05-03T02:26:01.957Z,100583.84
2018-05-03T02:28:27.828Z,100594.33
2018-05-03T02:30:53.636Z,100604.94
2018-05-03T02:33:19.529Z,100611.87
2018-05-03T02:35:45.838Z,100598.00
2018-05-03T02:38:11.684Z,100601.88
2018-05-03T02:40:37.480Z,100611.95
2018-05-03T02:43:03.356Z,100611.32
2018-05-03T02:45:31.491Z,100607.14
2018-05-03T02:47:57.364Z,100597.03
2018-05-03T02:50:23.981Z,100593.90
2018-05-03T02:52:49.823Z,100603.04
2018-05-03T02:55:15.692Z,100593.14
2018-05-03T02:57:53.998Z,100587.02
2018-05-03T03:00:32.316Z,100594.25
2018-05-03T03:03:10.557Z,100596.79
2018-05-03T03:05:48.852Z,100589.28
2018-05-03T03:11:48.224Z,100576.39
2018-05-03T03:14:27.172Z,100576.81
2018-05-03T03:17:05.328Z,100579.90
2018-05-03T03:19:35.049Z,100576.00
2018-05-03T03:22:13.268Z,100570.84
2018-05-03T03:24:45.157Z,100575.93
2018-05-03T03:30:27.090Z,100605.80
2018-05-03T03:32:58.949Z,100618.56
2018-05-03T03:38:28.513Z,100639.36
2018-05-03T03:41:00.384Z,100648.69
2018-05-03T03:43:32.318Z,100650.87
2018-05-03T03:45:58.165Z,100647.33
2018-05-03T03:48:23.996Z,100647.75
2018-05-03T03:50:49.838Z,100648.72
2018-05-03T03:53:15.652Z,100655.71
2018-05-03T03:55:41.508Z,100651.91
2018-05-03T03:58:07.359Z,100649.55
2018-05-03T04:00:33.200Z,100650.91
2018-05-03T04:02:59.004Z,100644.16
2018-05-03T04:05:24.867Z,100645.97
2018-05-03T04:07:50.863Z,100637.93
2018-05-03T04:10:17.503Z,100628.02
2018-05-03T04:12:44.243Z,100628.19
2018-05-03T04:15:10.132Z,100629.52
2018-05-03T04:17:43.107Z,100634.04
2018-05-03T04:20:15.193Z,100620.75
2018-05-03T04:22:47.232Z,100615.95
2018-05-03T04:25:19.322Z,100611.70
2018-05-03T04:27:45.212Z,100607.64
2018-05-03T04:30:11.152Z,100606.80
2018-05-03T04:32:36.984Z,100605.66
2018-05-03T04:35:02.869Z,100602.36
2018-05-03T04:37:29.721Z,100595.26
2018-05-03T04:39:57.316Z,100595.02
2018-05-03T04:42:23.948Z,100600.72
2018-05-03T04:44:49.788Z,100600.58
2018-05-03T04:47:16.464Z,100600.50
2018-05-03T04:49:42.297Z,100599.60
2018-05-03T04:52:13.814Z,100606.59
2018-05-03T04:54:39.660Z,100606.98
2018-05-03T04:57:06.925Z,100599.47
2018-05-03T04:59:32.728Z,100598.45
2018-05-03T05:01:58.566Z,100604.92
2018-05-03T05:04:25.252Z,100601.28
2018-05-03T05:06:51.980Z,100603.59
2018-05-03T05:09:17.792Z,100598.97
2018-05-03T05:11:43.659Z,100601.78
2018-05-03T05:14:09.673Z,100607.63
2018-05-03T05:16:35.477Z,100616.11
2018-05-03T05:19:01.296Z,100612.81
2018-05-03T05:21:27.308Z,100611.64
2018-05-03T05:23:54.000Z,100613.80
2018-05-03T05:26:19.828Z,100611.79
2018-05-03T05:28:45.730Z,100619.17
2018-05-03T05:31:12.369Z,100621.95
2018-05-03T05:33:38.780Z,100624.11
2018-05-03T05:36:04.659Z,100624.84
2018-05-03T05:38:30.478Z,100622.95
2018-05-03T05:40:57.308Z,100634.94
2018-05-03T05:43:23.111Z,100638.73
2018-05-03T05:45:48.941Z,100631.70
2018-05-03T05:48:14.739Z,100633.80
2018-05-03T05:50:40.564Z,100643.03
2018-05-03T05:53:07.328Z,100633.59
2018-05-03T05:55:34.056Z,100634.23
2018-05-03T05:58:00.804Z,100644.31
2018-05-03T06:00:26.633Z,100646.95
2018-05-03T06:02:53.308Z,100643.36
2018-05-03T06:05:19.139Z,100641.59
2018-05-03T06:07:44.941Z,100647.36
2018-05-03T06:10:11.608Z,100658.72
2018-05-03T06:12:37.561Z,100662.41
2018-05-03T06:15:03.491Z,100671.95
2018-05-03T06:17:29.470Z,100671.56
2018-05-03T06:19:55.261Z,100667.11
2018-05-03T06:22:21.922Z,100668.67
2018-05-03T06:24:48.693Z,100672.09
2018-05-03T06:27:14.488Z,100677.07
2018-05-03T06:29:40.336Z,100691.87
2018-05-03T06:32:07.187Z,100699.91
2018-05-03T06:34:32.996Z,100711.11
2018-05-03T06:36:59.745Z,100716.25
2018-05-03T06:39:25.764Z,100725.37
2018-05-03T06:41:51.472Z,100745.27
2018-05-03T06:44:17.380Z,100764.17
2018-05-03T06:46:43.183Z,100764.80
2018-05-03T06:49:09.904Z,100764.23
2018-05-03T06:51:35.772Z,100762.91
2018-05-03T06:54:01.528Z,100762.53
2018-05-03T06:56:27.328Z,100757.91
2018-05-03T06:58:53.128Z,100751.84
2018-05-03T07:01:19.808Z,100747.29
2018-05-03T07:03:45.630Z,100757.07
2018-05-03T07:06:11.432Z,100763.92
2018-05-03T07:08:37.240Z,100782.97
2018-05-03T07:11:03.054Z,100788.30
2018-05-03T07:13:29.757Z,100785.27
2018-05-03T07:15:55.556Z,100796.96
2018-05-03T07:18:21.356Z,100810.26
2018-05-03T07:20:48.008Z,100826.94
2018-05-03T07:23:13.803Z,100839.75
2018-05-03T07:25:40.624Z,100843.65
2018-05-03T07:28:06.420Z,100852.19
2018-05-03T07:30:32.216Z,100850.33
2018-05-03T07:32:58.176Z,100857.85
2018-05-03T07:35:24.390Z,100865.00
2018-05-03T07:38:01.577Z,100872.83
2018-05-03T07:40:30.045Z,100881.27
2018-05-03T07:42:55.948Z,100893.42
2018-05-03T07:45:21.740Z,100902.44
2018-05-03T07:47:47.540Z,100898.23
2018-05-03T07:50:13.400Z,100893.09
2018-05-03T07:52:39.195Z,100889.20
2018-05-03T07:55:05.042Z,100891.29
2018-05-03T07:57:30.854Z,100893.73
2018-05-03T07:59:56.647Z,100896.84
2018-05-03T08:02:22.452Z,100891.47
2018-05-03T08:04:48.930Z,100892.55
2018-05-03T08:07:14.732Z,100886.83
2018-05-03T08:09:40.523Z,100887.63
2018-05-03T08:12:06.320Z,100877.59
2018-05-03T08:14:32.140Z,100880.04
2018-05-03T08:16:58.876Z,100879.20
2018-05-03T08:19:25.490Z,100873.98
2018-05-03T08:21:52.077Z,100874.19
2018-05-03T08:24:17.876Z,100873.25
2018-05-03T08:26:43.679Z,100879.20
2018-05-03T08:29:09.483Z,100878.58
2018-05-03T08:31:35.304Z,100879.27
2018-05-03T08:34:01.109Z,100876.20
2018-05-03T08:36:27.048Z,100876.41
2018-05-03T08:38:53.873Z,100878.30
2018-05-03T08:41:20.631Z,100878.72
2018-05-03T08:43:47.352Z,100874.26
2018-05-03T08:46:13.149Z,100873.66
2018-05-03T08:48:40.010Z,100882.62
2018-05-03T08:51:11.708Z,100885.61
2018-05-03T08:53:38.345Z,100887.01
2018-05-03T08:56:04.145Z,100888.52
2018-05-03T08:58:30.752Z,100883.25
2018-05-03T09:00:56.610Z,100884.47
2018-05-03T09:03:23.297Z,100890.53
2018-05-03T09:05:49.103Z,100896.91
2018-05-03T09:08:15.019Z,100896.59
2018-05-03T09:10:40.853Z,100907.67
2018-05-03T09:13:07.500Z,100905.27
2018-05-03T09:15:33.296Z,100903.28
2018-05-03T09:17:59.098Z,100908.23
2018-05-03T09:20:26.040Z,100914.47
2018-05-03T09:22:51.857Z,100921.75
2018-05-03T09:25:18.573Z,100915.37
2018-05-03T09:27:44.368Z,100921.89
2018-05-03T09:30:11.025Z,100926.11
2018-05-03T09:32:36.857Z,100924.53
2018-05-03T09:35:03.652Z,100925.52
2018-05-03T09:37:29.447Z,100928.79
2018-05-03T09:39:55.286Z,100936.42
2018-05-03T09:42:21.929Z,100938.37
2018-05-03T09:44:48.741Z,100934.67
2018-05-03T09:47:14.521Z,100938.27
2018-05-03T09:49:41.210Z,100935.93
2018-05-03T09:52:07.865Z,100939.91
2018-05-03T09:54:34.626Z,100940.61
2018-05-03T09:57:01.396Z,100943.45
2018-05-03T09:59:27.236Z,100948.44
2018-05-03T10:01:53.065Z,100945.34
2018-05-03T10:04:19.723Z,100947.84
2018-05-03T10:06:45.564Z,100946.21
2018-05-03T10:09:11.365Z,100955.34
2018-05-03T10:11:38.029Z,100951.13
2018-05-03T10:14:04.612Z,100949.80
2018-05-03T10:16:31.461Z,100945.55
2018-05-03T10:18:58.207Z,100954.81
2018-05-03T10:21:24.014Z,100954.43
2018-05-03T10:23:49.841Z,100962.97
2018-05-03T10:26:16.475Z,100962.86
2018-05-03T10:28:42.313Z,100960.04
2018-05-03T10:31:08.488Z,100960.70
2018-05-03T10:33:35.128Z,100960.77
2018-05-03T10:36:01.038Z,100965.51
2018-05-03T10:38:27.783Z,100967.25
2018-05-03T10:40:53.580Z,100967.70
2018-05-03T10:43:20.205Z,100972.37
2018-05-03T10:45:46.984Z,100971.47
2018-05-03T10:48:12.773Z,100967.22
2018-05-03T10:50:39.503Z,100969.80
2018-05-03T10:53:06.331Z,100970.83
2018-05-03T10:55:33.191Z,100973.20
2018-05-03T10:57:58.996Z,100974.14
2018-05-03T11:00:24.801Z,100973.55
2018-05-03T11:02:50.624Z,100971.60
2018-05-03T11:05:16.465Z,100982.20
2018-05-03T11:07:42.279Z,100983.45
2018-05-03T11:10:08.997Z,100980.20
2018-05-03T11:12:35.511Z,100978.84
2018-05-03T11:15:02.202Z,100985.75
2018-05-03T11:17:28.004Z,100984.64
2018-05-03T11:19:53.824Z,100986.89
2018-05-03T11:22:19.619Z,100986.34
2018-05-03T11:24:45.505Z,100986.16
2018-05-03T11:27:12.163Z,100981.12
2018-05-03T11:29:37.960Z,100979.22
2018-05-03T11:32:03.769Z,100978.01
2018-05-03T11:34:29.619Z,100986.06
2018-05-03T11:36:56.287Z,100983.97
2018-05-03T11:39:22.248Z,100983.06
2018-05-03T11:41:48.043Z,100984.98
2018-05-03T11:44:13.841Z,100980.30
2018-05-03T11:46:40.596Z,100984.07
2018-05-03T11:49:06.413Z,100990.45
2018-05-03T11:51:32.217Z,100991.80
2018-05-03T11:53:58.017Z,100987.45
2018-05-03T11:56:23.812Z,100986.37
2018-05-03T11:58:49.621Z,100990.09
2018-05-03T12:01:15.420Z,100992.11
2018-05-03T12:03:41.216Z,100982.22
2018-05-03T12:06:07.103Z,100987.82
2018-05-03T12:08:33.745Z,100992.22
2018-05-03T12:11:00.532Z,100988.31
2018-05-03T12:13:26.329Z,100989.19
2018-05-03T12:15:52.140Z,100994.00
2018-05-03T12:18:17.936Z,100997.20
2018-05-03T12:20:44.700Z,100997.41
2018-05-03T12:23:10.496Z,100995.77
2018-05-03T12:25:36.293Z,100992.57
2018-05-03T12:28:02.088Z,100997.20
2018-05-03T12:30:27.884Z,100998.15
2018-05-03T12:32:54.558Z,100994.03
2018-05-03T12:35:21.352Z,100997.09
2018-05-03T12:37:48.144Z,100997.05
2018-05-03T12:40:14.915Z,100993.85
2018-05-03T12:42:40.713Z,100998.30
2018-05-03T12:45:07.477Z,100994.73
2018-05-03T12:47:33.271Z,100995.41
2018-05-03T12:49:59.102Z,100996.38
2018-05-03T12:52:24.908Z,100998.19
2018-05-03T12:54:50.736Z,101004.26
2018-05-03T12:57:17.361Z,100996.94
2018-05-03T12:59:43.989Z,100994.53
2018-05-03T13:02:10.656Z,100996.55
2018-05-03T13:04:36.489Z,100996.34
2018-05-03T13:07:02.289Z,100994.95
2018-05-03T13:09:29.008Z,101002.16
2018-05-03T13:11:54.865Z,101005.16
2018-05-03T13:14:20.657Z,100999.98
2018-05-03T13:16:46.506Z,101005.20
2018-05-03T13:19:13.364Z,101005.82
2018-05-03T13:21:39.163Z,101011.11
2018-05-03T13:24:05.916Z,101012.77
2018-05-03T13:26:31.734Z,101006.19
2018-05-03T13:28:58.395Z,101009.58
2018-05-03T13:31:24.294Z,101016.05
2018-05-03T13:33:50.981Z,101021.81
2018-05-03T13:36:17.596Z,101017.31
2018-05-03T13:38:44.215Z,101010.89
2018-05-03T13:41:11.052Z,101014.27
2018-05-03T13:43:37.528Z,101018.97
2018-05-03T13:46:04.313Z,101028.50
2018-05-03T13:48:31.100Z,101028.36
2018-05-03T13:50:57.823Z,101026.77
2018-05-03T13:53:23.742Z,101026.50
2018-05-03T13:55:50.578Z,101028.64
2018-05-03T13:58:16.380Z,101029.72
2018-05-03T14:00:43.253Z,101028.02
2018-05-03T14:03:09.013Z,101029.58
2018-05-03T14:05:35.657Z,101025.19
2018-05-03T14:08:02.416Z,101029.58
2018-05-03T14:10:28.779Z,101035.44
2018-05-03T14:12:54.601Z,101028.39
2018-05-03T14:15:20.400Z,101039.52
2018-05-03T14:17:46.245Z,101039.17
2018-05-03T14:20:13.123Z,101038.78
2018-05-03T14:22:39.488Z,101035.44
2018-05-03T14:25:06.136Z,101033.63
2018-05-03T14:27:31.968Z,101040.39
2018-05-03T14:29:58.628Z,101035.61
2018-05-03T14:32:24.460Z,101030.69
2018-05-03T14:34:50.370Z,101040.97
2018-05-03T14:37:17.011Z,101037.36
2018-05-03T14:39:42.843Z,101047.88
2018-05-03T14:42:09.624Z,101047.66
2018-05-03T14:44:35.456Z,101039.61
2018-05-03T14:47:01.248Z,101041.33
2018-05-03T14:49:28.073Z,101049.20
2018-05-03T14:51:54.796Z,101032.19
2018-05-03T14:54:20.588Z,101032.70
2018-05-03T14:56:46.389Z,101032.67
2018-05-03T14:59:13.170Z,101040.20
2018-05-03T15:01:39.911Z,101040.52
2018-05-03T15:04:05.708Z,101046.30
2018-05-03T15:06:32.721Z,101038.64
2018-05-03T15:08:59.382Z,101047.34
2018-05-03T15:11:25.180Z,101045.70
2018-05-03T15:13:50.992Z,101048.11
2018-05-03T15:16:16.899Z,101043.94
2018-05-03T15:18:43.532Z,101049.98
2018-05-03T15:21:09.325Z,101050.23
2018-05-03T15:23:35.123Z,101048.84
2018-05-03T15:26:00.916Z,101051.38
2018-05-03T15:28:26.715Z,101052.37
2018-05-03T15:30:52.514Z,101051.25
2018-05-03T15:33:19.329Z,101058.28
2018-05-03T15:35:45.124Z,101050.36
2018-05-03T15:38:10.923Z,101052.70
2018-05-03T15:40:36.843Z,101055.13
2018-05-03T15:43:02.636Z,101061.27
2018-05-03T15:45:28.440Z,101057.27
2018-05-03T15:47:54.239Z,101059.25
2018-05-03T15:50:20.345Z,101061.64
2018-05-03T15:52:46.145Z,101057.64
2018-05-03T15:55:12.785Z,101065.77
2018-05-03T15:57:38.584Z,101058.67
2018-05-03T16:00:04.387Z,101061.27
2018-05-03T16:02:30.294Z,101065.38
2018-05-03T16:04:56.096Z,101057.82
2018-05-03T16:07:21.900Z,101065.76
2018-05-03T16:09:47.696Z,101067.47
2018-05-03T16:12:13.495Z,101077.31
2018-05-03T16:14:39.289Z,101090.38
2018-05-03T16:17:05.090Z,101093.70
2018-05-03T16:19:30.885Z,101099.61
2018-05-03T16:21:56.691Z,101102.92
2018-05-03T16:24:22.508Z,101103.62
2018-05-03T16:26:48.320Z,101101.34
2018-05-03T16:29:14.117Z,101105.68
2018-05-03T16:31:39.920Z,101111.06
2018-05-03T16:34:05.720Z,101116.34
2018-05-03T16:36:31.517Z,101116.56
2018-05-03T16:38:57.313Z,101122.29
2018-05-03T16:41:23.112Z,101123.72
2018-05-03T16:43:48.924Z,101135.90
2018-05-03T16:46:15.692Z,101130.10
2018-05-03T16:48:42.480Z,101139.04
2018-05-03T16:51:08.293Z,101149.13
2018-05-03T16:53:35.004Z,101141.86
2018-05-03T16:56:01.775Z,101150.52
2018-05-03T16:58:28.423Z,101155.11
2018-05-03T17:00:54.347Z,101159.23
2018-05-03T17:03:20.150Z,101171.04
2018-05-03T17:05:46.934Z,101177.36
2018-05-03T17:08:12.737Z,101185.08
2018-05-03T17:10:38.580Z,101190.79
2018-05-03T17:13:04.424Z,101185.25
2018-05-03T17:15:30.725Z,101196.31
2018-05-03T17:17:57.965Z,101198.06
2018-05-03T17:20:24.729Z,101198.97
2018-05-03T17:22:50.568Z,101197.98
2018-05-03T17:25:16.373Z,101207.62
2018-05-03T17:27:42.233Z,101208.36
2018-05-03T17:30:08.038Z,101216.53
2018-05-03T17:32:34.826Z,101214.78
2018-05-03T17:35:00.625Z,101224.18
2018-05-03T17:37:27.280Z,101232.90
2018-05-03T17:39:53.081Z,101242.16
2018-05-03T17:42:18.928Z,101254.01
2018-05-03T17:44:44.765Z,101261.70
2018-05-03T17:47:10.602Z,101268.56
2018-05-03T17:49:37.476Z,101263.83
2018-05-03T17:52:04.132Z,101279.45
2018-05-03T17:54:30.945Z,101283.36
2018-05-03T17:56:57.815Z,101284.03
2018-05-03T17:59:24.477Z,101292.67
2018-05-03T18:01:50.398Z,101297.20
2018-05-03T18:04:16.389Z,101295.42
2018-05-03T18:06:42.200Z,101303.27
2018-05-03T18:09:08.053Z,101305.23
2018-05-03T18:11:33.881Z,101314.89
2018-05-03T18:14:00.505Z,101322.71
2018-05-03T18:16:26.349Z,101330.50
2018-05-03T18:18:52.170Z,101334.19
2018-05-03T18:21:18.933Z,101345.66
2018-05-03T18:23:44.744Z,101352.45
2018-05-03T18:26:10.605Z,101359.92
2018-05-03T18:28:37.157Z,101369.45
2018-05-03T18:31:04.095Z,101365.98
2018-05-03T18:33:30.832Z,101383.50
2018-05-03T18:35:56.756Z,101390.30
2018-05-03T18:38:22.554Z,101392.84
2018-05-03T18:40:48.501Z,101400.88
2018-05-03T18:43:15.269Z,101407.56
2018-05-03T18:45:41.072Z,101425.81
2018-05-03T18:48:06.981Z,101424.85
2018-05-03T18:50:33.782Z,101422.80
2018-05-03T18:52:59.580Z,101430.31
2018-05-03T18:55:25.391Z,101434.45
2018-05-03T18:57:51.225Z,101436.83
2018-05-03T19:00:18.004Z,101447.36
2018-05-03T19:02:43.824Z,101445.77
2018-05-03T19:05:09.677Z,101453.19
2018-05-03T19:07:36.476Z,101460.65
2018-05-03T19:10:02.300Z,101463.38
2018-05-03T19:12:28.108Z,101467.11
2018-05-03T19:14:53.909Z,101462.81
2018-05-03T19:17:19.705Z,101472.07
2018-05-03T19:19:45.509Z,101468.61
2018-05-03T19:22:11.314Z,101470.09
2018-05-03T19:24:37.127Z,101475.83
2018-05-03T19:27:03.959Z,101477.72
2018-05-03T19:29:29.832Z,101472.55
2018-05-03T19:31:55.673Z,101478.27
2018-05-03T19:34:21.483Z,101475.92
2018-05-03T19:36:47.285Z,101478.93
2018-05-03T19:39:13.124Z,101479.86
2018-05-03T19:41:38.929Z,101477.45
2018-05-03T19:44:04.796Z,101479.68
2018-05-03T19:46:30.641Z,101486.53
2018-05-03T19:48:56.505Z,101493.74
2018-05-03T19:51:22.337Z,101497.38
2018-05-03T19:53:48.174Z,101504.53
2018-05-03T19:56:14.067Z,101507.06
2018-05-03T19:58:39.897Z,101513.64
2018-05-03T20:01:05.704Z,101512.05
2018-05-03T20:03:31.509Z,101512.13
2018-05-03T20:05:57.615Z,101510.41
2018-05-03T20:08:23.588Z,101521.61
2018-05-03T20:10:50.287Z,101522.58
2018-05-03T20:13:17.069Z,101523.59
2018-05-03T20:15:43.117Z,101524.80
2018-05-03T20:18:08.920Z,101530.73
2018-05-03T20:20:35.797Z,101526.68
2018-05-03T20:23:01.617Z,101530.58
2018-05-03T20:25:28.433Z,101534.34
2018-05-03T20:27:54.236Z,101539.06
2018-05-03T20:30:20.069Z,101544.88
2018-05-03T20:32:45.974Z,101546.66
2018-05-03T20:35:11.812Z,101542.81
2018-05-03T20:37:37.825Z,101553.88
2018-05-03T20:40:03.636Z,101557.38
2018-05-03T20:42:29.449Z,101558.20
2018-05-03T20:44:55.306Z,101553.91
2018-05-03T20:47:21.203Z,101560.46
2018-05-03T20:49:47.000Z,101563.47
2018-05-03T20:52:12.857Z,101562.83
2018-05-03T20:54:38.865Z,101563.55
2018-05-03T20:57:04.787Z,101571.07
2018-05-03T20:59:30.587Z,101572.13
2018-05-03T21:01:56.423Z,101575.86
2018-05-03T21:04:22.224Z,101575.27
2018-05-03T21:06:48.060Z,101572.01
2018-05-03T21:09:13.863Z,101579.06
2018-05-03T21:11:39.689Z,101573.34
2018-05-03T21:14:05.669Z,101585.64
2018-05-03T21:16:31.584Z,101583.27
2018-05-03T21:18:57.396Z,101592.05
2018-05-03T21:21:23.196Z,101593.59
2018-05-03T21:23:49.001Z,101596.18
2018-05-03T21:26:15.875Z,101603.25
2018-05-03T21:28:42.481Z,101610.83
2018-05-03T21:31:08.325Z,101606.86
2018-05-03T21:33:34.239Z,101615.11
2018-05-03T21:36:00.076Z,101625.02
2018-05-03T21:38:25.945Z,101626.89
2018-05-03T21:40:51.773Z,101628.75
2018-05-03T21:43:18.356Z,101625.79
2018-05-03T21:45:44.193Z,101627.13
2018-05-03T21:48:10.033Z,101629.08
2018-05-03T21:50:35.832Z,101634.64
2018-05-03T21:53:02.472Z,101637.70
2018-05-03T21:55:28.272Z,101641.31
2018-05-03T21:57:54.160Z,101644.59
2018-05-03T22:00:20.010Z,101642.41
2018-05-03T22:02:46.765Z,101647.45
2018-05-03T22:05:12.560Z,101651.38
2018-05-03T22:07:38.355Z,101650.14
2018-05-03T22:10:04.208Z,101654.34
2018-05-03T22:12:30.125Z,101650.81
2018-05-03T22:14:56.748Z,101648.88
2018-05-03T22:17:23.561Z,101646.59
2018-05-03T22:19:49.369Z,101642.26
2018-05-03T22:22:15.182Z,101644.20
2018-05-03T22:24:41.036Z,101640.15
2018-05-03T22:27:06.833Z,101640.37
2018-05-03T22:29:33.597Z,101642.76
2018-05-03T22:31:59.485Z,101641.42
2018-05-03T22:34:25.291Z,101651.50
2018-05-03T22:36:51.151Z,101644.25
2018-05-03T22:39:17.006Z,101649.40
2018-05-03T22:41:42.897Z,101652.69
2018-05-03T22:44:08.689Z,101647.30
2018-05-03T22:46:35.284Z,101649.88
2018-05-03T22:49:02.005Z,101654.80
2018-05-03T22:51:28.757Z,101655.52
2018-05-03T22:53:55.548Z,101655.16
2018-05-03T22:56:21.501Z,101655.38
2018-05-03T22:58:47.301Z,101658.02
2018-05-03T23:01:14.112Z,101659.41
2018-05-03T23:03:39.987Z,101657.54
2018-05-03T23:06:05.939Z,101654.88
2018-05-03T23:08:31.744Z,101658.25
2018-05-03T23:10:58.524Z,101655.66
2018-05-03T23:13:24.357Z,101656.72
2018-05-03T23:15:50.244Z,101665.02
2018-05-03T23:18:16.055Z,101659.63
2018-05-03T23:20:41.852Z,101662.14
2018-05-03T23:23:07.652Z,101662.40
2018-05-03T23:25:33.457Z,101663.84
2018-05-03T23:27:59.269Z,101662.82
2018-05-03T23:30:25.072Z,101670.63
2018-05-03T23:32:50.900Z,101670.50
2018-05-03T23:35:16.730Z,101671.98
2018-05-03T23:37:42.621Z,101669.13
2018-05-03T23:40:08.420Z,101665.51
2018-05-03T23:42:34.260Z,101669.08
2018-05-03T23:45:00.061Z,101668.20
2018-05-03T23:47:25.860Z,101666.53
2018-05-03T23:49:51.668Z,101665.27
2018-05-03T23:52:17.464Z,101676.06
2018-05-03T23:54:43.258Z,101678.00
2018-05-03T23:57:09.941Z,101682.31
2018-05-03T23:59:36.538Z,101681.07
